sensor_id;sensor_type;location;lat;lon;timestamp;P1;durP1;ratioP1;P2;durP2;ratioP2
42450;SDS011;28080;51.138;17.170;2024-02-21T00:07:52;23.40;;;5.50;;
42450;SDS011;28080;51.138;17.170;2024-02-21T00:18:18;14.60;;;3.80;;
42450;SDS011;28080;51.138;17.170;2024-02-21T00:29:05;23.50;;;4.40;;
42450;SDS011;28080;51.138;17.170;2024-02-21T00:39:30;18.80;;;3.10;;
42450;SDS011;28080;51.138;17.170;2024-02-21T00:49:56;18.80;;;4.10;;
42450;SDS011;28080;51.138;17.170;2024-02-21T01:00:14;15.30;;;4.70;;
42450;SDS011;28080;51.138;17.170;2024-02-21T01:10:39;24.00;;;7.00;;
42450;SDS011;28080;51.138;17.170;2024-02-21T01:21:06;18.90;;;5.10;;
42450;SDS011;28080;51.138;17.170;2024-02-21T01:31:32;18.50;;;6.30;;
42450;SDS011;28080;51.138;17.170;2024-02-21T01:41:58;23.70;;;5.20;;
42450;SDS011;28080;51.138;17.170;2024-02-21T01:52:23;20.00;;;5.30;;
42450;SDS011;28080;51.138;17.170;2024-02-21T02:02:49;20.70;;;5.30;;
42450;SDS011;28080;51.138;17.170;2024-02-21T02:13:24;24.20;;;6.70;;
42450;SDS011;28080;51.138;17.170;2024-02-21T02:23:50;23.90;;;8.00;;
42450;SDS011;28080;51.138;17.170;2024-02-21T02:34:13;24.10;;;5.90;;
42450;SDS011;28080;51.138;17.170;2024-02-21T02:44:33;16.20;;;6.10;;
42450;SDS011;28080;51.138;17.170;2024-02-21T02:54:58;22.00;;;6.40;;
42450;SDS011;28080;51.138;17.170;2024-02-21T03:05:21;15.00;;;4.20;;
42450;SDS011;28080;51.138;17.170;2024-02-21T03:15:47;16.50;;;5.00;;
42450;SDS011;28080;51.138;17.170;2024-02-21T03:26:12;16.10;;;5.80;;
42450;SDS011;28080;51.138;17.170;2024-02-21T03:36:32;16.70;;;5.90;;
42450;SDS011;28080;51.138;17.170;2024-02-21T03:46:58;18.30;;;6.70;;
42450;SDS011;28080;51.138;17.170;2024-02-21T03:57:23;26.30;;;6.70;;
42450;SDS011;28080;51.138;17.170;2024-02-21T04:07:48;16.80;;;6.00;;
42450;SDS011;28080;51.138;17.170;2024-02-21T04:18:14;18.80;;;6.70;;
42450;SDS011;28080;51.138;17.170;2024-02-21T04:28:32;14.10;;;5.60;;
42450;SDS011;28080;51.138;17.170;2024-02-21T04:38:57;15.70;;;5.60;;
42450;SDS011;28080;51.138;17.170;2024-02-21T04:49:23;15.00;;;5.10;;
42450;SDS011;28080;51.138;17.170;2024-02-21T04:59:45;15.10;;;6.30;;
42450;SDS011;28080;51.138;17.170;2024-02-21T05:10:10;18.10;;;6.30;;
42450;SDS011;28080;51.138;17.170;2024-02-21T05:20:36;14.70;;;5.70;;
42450;SDS011;28080;51.138;17.170;2024-02-21T05:31:02;18.20;;;6.50;;
42450;SDS011;28080;51.138;17.170;2024-02-21T05:41:28;10.10;;;5.30;;
42450;SDS011;28080;51.138;17.170;2024-02-21T05:51:54;19.40;;;7.30;;
42450;SDS011;28080;51.138;17.170;2024-02-21T06:02:48;14.70;;;5.70;;
42450;SDS011;28080;51.138;17.170;2024-02-21T06:13:16;14.10;;;6.10;;
42450;SDS011;28080;51.138;17.170;2024-02-21T06:23:30;11.70;;;5.30;;
42450;SDS011;28080;51.138;17.170;2024-02-21T06:33:46;22.20;;;6.80;;
42450;SDS011;28080;51.138;17.170;2024-02-21T06:44:03;13.70;;;5.60;;
42450;SDS011;28080;51.138;17.170;2024-02-21T06:54:16;12.20;;;5.00;;
42450;SDS011;28080;51.138;17.170;2024-02-21T07:04:40;14.00;;;5.90;;
42450;SDS011;28080;51.138;17.170;2024-02-21T07:15:06;14.20;;;5.30;;
42450;SDS011;28080;51.138;17.170;2024-02-21T07:25:24;21.10;;;6.90;;
42450;SDS011;28080;51.138;17.170;2024-02-21T07:35:41;17.30;;;6.90;;
42450;SDS011;28080;51.138;17.170;2024-02-21T07:45:55;20.30;;;7.40;;
42450;SDS011;28080;51.138;17.170;2024-02-21T07:56:08;16.80;;;7.00;;
42450;SDS011;28080;51.138;17.170;2024-02-21T08:06:33;23.90;;;7.60;;
42450;SDS011;28080;51.138;17.170;2024-02-21T08:16:59;22.70;;;7.90;;
42450;SDS011;28080;51.138;17.170;2024-02-21T08:27:25;23.30;;;8.70;;
42450;SDS011;28080;51.138;17.170;2024-02-21T08:37:50;24.30;;;8.00;;
42450;SDS011;28080;51.138;17.170;2024-02-21T08:48:16;22.70;;;7.80;;
42450;SDS011;28080;51.138;17.170;2024-02-21T08:58:41;20.20;;;7.80;;
42450;SDS011;28080;51.138;17.170;2024-02-21T09:09:06;23.70;;;8.90;;
42450;SDS011;28080;51.138;17.170;2024-02-21T09:19:26;27.40;;;8.40;;
42450;SDS011;28080;51.138;17.170;2024-02-21T09:29:51;20.40;;;6.80;;
42450;SDS011;28080;51.138;17.170;2024-02-21T09:40:16;15.40;;;7.00;;
42450;SDS011;28080;51.138;17.170;2024-02-21T09:50:41;23.90;;;8.50;;
42450;SDS011;28080;51.138;17.170;2024-02-21T10:01:10;18.00;;;7.60;;
42450;SDS011;28080;51.138;17.170;2024-02-21T10:11:35;18.00;;;8.10;;
42450;SDS011;28080;51.138;17.170;2024-02-21T10:22:02;17.30;;;7.60;;
42450;SDS011;28080;51.138;17.170;2024-02-21T10:32:29;14.80;;;7.70;;
42450;SDS011;28080;51.138;17.170;2024-02-21T10:42:47;22.60;;;8.70;;
42450;SDS011;28080;51.138;17.170;2024-02-21T10:53:18;21.90;;;8.50;;
42450;SDS011;28080;51.138;17.170;2024-02-21T11:03:52;16.30;;;8.20;;
42450;SDS011;28080;51.138;17.170;2024-02-21T11:14:19;17.30;;;8.40;;
42450;SDS011;28080;51.138;17.170;2024-02-21T11:24:45;18.00;;;9.70;;
42450;SDS011;28080;51.138;17.170;2024-02-21T11:35:18;23.00;;;8.80;;
42450;SDS011;28080;51.138;17.170;2024-02-21T11:45:45;19.10;;;8.90;;
42450;SDS011;28080;51.138;17.170;2024-02-21T11:56:10;16.10;;;8.60;;
42450;SDS011;28080;51.138;17.170;2024-02-21T12:06:37;16.70;;;8.30;;
42450;SDS011;28080;51.138;17.170;2024-02-21T12:17:03;16.90;;;8.90;;
42450;SDS011;28080;51.138;17.170;2024-02-21T12:27:29;17.20;;;9.40;;
42450;SDS011;28080;51.138;17.170;2024-02-21T12:37:55;16.00;;;8.60;;
42450;SDS011;28080;51.138;17.170;2024-02-21T12:48:21;25.30;;;11.60;;
42450;SDS011;28080;51.138;17.170;2024-02-21T12:58:47;17.30;;;9.50;;
42450;SDS011;28080;51.138;17.170;2024-02-21T13:09:09;18.90;;;8.30;;
42450;SDS011;28080;51.138;17.170;2024-02-21T13:19:35;14.70;;;7.50;;
42450;SDS011;28080;51.138;17.170;2024-02-21T13:30:00;17.30;;;8.80;;
42450;SDS011;28080;51.138;17.170;2024-02-21T13:40:28;11.00;;;6.60;;
42450;SDS011;28080;51.138;17.170;2024-02-21T13:50:53;14.30;;;6.20;;
42450;SDS011;28080;51.138;17.170;2024-02-21T14:01:19;9.90;;;5.10;;
42450;SDS011;28080;51.138;17.170;2024-02-21T14:11:44;13.80;;;5.50;;
42450;SDS011;28080;51.138;17.170;2024-02-21T14:22:09;20.80;;;7.80;;
42450;SDS011;28080;51.138;17.170;2024-02-21T14:32:35;13.70;;;6.60;;
42450;SDS011;28080;51.138;17.170;2024-02-21T14:43:01;13.60;;;6.70;;
42450;SDS011;28080;51.138;17.170;2024-02-21T14:53:27;11.60;;;5.20;;
42450;SDS011;28080;51.138;17.170;2024-02-21T15:03:46;14.50;;;6.70;;
42450;SDS011;28080;51.138;17.170;2024-02-21T15:14:11;21.20;;;8.50;;
42450;SDS011;28080;51.138;17.170;2024-02-21T15:24:37;18.70;;;8.30;;
42450;SDS011;28080;51.138;17.170;2024-02-21T15:35:03;11.90;;;6.60;;
42450;SDS011;28080;51.138;17.170;2024-02-21T15:45:29;13.80;;;7.80;;
42450;SDS011;28080;51.138;17.170;2024-02-21T15:55:54;15.00;;;7.40;;
42450;SDS011;28080;51.138;17.170;2024-02-21T16:06:20;13.20;;;7.60;;
42450;SDS011;28080;51.138;17.170;2024-02-21T16:16:45;15.30;;;7.10;;
42450;SDS011;28080;51.138;17.170;2024-02-21T16:27:11;23.40;;;10.00;;
42450;SDS011;28080;51.138;17.170;2024-02-21T16:37:37;25.40;;;10.10;;
42450;SDS011;28080;51.138;17.170;2024-02-21T16:48:03;16.50;;;8.80;;
42450;SDS011;28080;51.138;17.170;2024-02-21T16:58:31;20.70;;;9.20;;
42450;SDS011;28080;51.138;17.170;2024-02-21T17:08:59;17.90;;;9.00;;
42450;SDS011;28080;51.138;17.170;2024-02-21T17:19:27;18.70;;;9.30;;
42450;SDS011;28080;51.138;17.170;2024-02-21T17:29:53;18.70;;;8.20;;
42450;SDS011;28080;51.138;17.170;2024-02-21T17:40:19;21.60;;;11.20;;
42450;SDS011;28080;51.138;17.170;2024-02-21T17:50:44;20.70;;;11.10;;
42450;SDS011;28080;51.138;17.170;2024-02-21T18:01:11;29.70;;;14.70;;
42450;SDS011;28080;51.138;17.170;2024-02-21T18:11:37;25.30;;;12.90;;
42450;SDS011;28080;51.138;17.170;2024-02-21T18:22:23;25.80;;;12.60;;
42450;SDS011;28080;51.138;17.170;2024-02-21T18:32:49;24.00;;;12.60;;
42450;SDS011;28080;51.138;17.170;2024-02-21T18:43:35;38.90;;;20.80;;
42450;SDS011;28080;51.138;17.170;2024-02-21T18:54:01;32.80;;;16.00;;
42450;SDS011;28080;51.138;17.170;2024-02-21T19:04:27;29.10;;;15.90;;
42450;SDS011;28080;51.138;17.170;2024-02-21T19:14:49;37.10;;;16.00;;
42450;SDS011;28080;51.138;17.170;2024-02-21T19:25:14;31.50;;;16.70;;
42450;SDS011;28080;51.138;17.170;2024-02-21T19:35:43;35.20;;;16.60;;
42450;SDS011;28080;51.138;17.170;2024-02-21T19:46:08;37.30;;;18.50;;
42450;SDS011;28080;51.138;17.170;2024-02-21T19:56:34;37.80;;;17.50;;
42450;SDS011;28080;51.138;17.170;2024-02-21T20:06:59;36.10;;;17.30;;
42450;SDS011;28080;51.138;17.170;2024-02-21T20:17:26;33.30;;;17.10;;
42450;SDS011;28080;51.138;17.170;2024-02-21T20:27:51;32.90;;;17.30;;
42450;SDS011;28080;51.138;17.170;2024-02-21T20:38:17;33.90;;;18.30;;
42450;SDS011;28080;51.138;17.170;2024-02-21T20:48:43;51.30;;;24.30;;
42450;SDS011;28080;51.138;17.170;2024-02-21T20:59:08;33.90;;;17.10;;
42450;SDS011;28080;51.138;17.170;2024-02-21T21:09:46;37.90;;;16.00;;
42450;SDS011;28080;51.138;17.170;2024-02-21T21:20:16;46.30;;;20.80;;
42450;SDS011;28080;51.138;17.170;2024-02-21T21:30:49;31.10;;;15.40;;
42450;SDS011;28080;51.138;17.170;2024-02-21T21:41:16;34.00;;;16.50;;
42450;SDS011;28080;51.138;17.170;2024-02-21T21:51:43;45.90;;;19.60;;
42450;SDS011;28080;51.138;17.170;2024-02-21T22:02:08;50.60;;;18.70;;
42450;SDS011;28080;51.138;17.170;2024-02-21T22:12:34;46.30;;;19.40;;
42450;SDS011;28080;51.138;17.170;2024-02-21T22:22:59;47.60;;;18.20;;
42450;SDS011;28080;51.138;17.170;2024-02-21T22:33:25;33.00;;;16.20;;
42450;SDS011;28080;51.138;17.170;2024-02-21T22:43:50;36.00;;;14.00;;
42450;SDS011;28080;51.138;17.170;2024-02-21T22:54:17;28.20;;;12.70;;
42450;SDS011;28080;51.138;17.170;2024-02-21T23:05:02;28.10;;;11.40;;
42450;SDS011;28080;51.138;17.170;2024-02-21T23:15:28;18.60;;;8.70;;
42450;SDS011;28080;51.138;17.170;2024-02-21T23:25:53;16.80;;;7.50;;
42450;SDS011;28080;51.138;17.170;2024-02-21T23:36:19;19.60;;;12.90;;
42450;SDS011;28080;51.138;17.170;2024-02-21T23:46:44;20.80;;;8.70;;
42450;SDS011;28080;51.138;17.170;2024-02-21T23:57:10;17.00;;;5.90;;
